createdAt,value
2018-01-19T20:02:52.966Z,8
2018-01-19T20:03:52.440Z,8
2018-01-19T20:04:52.400Z,8
2018-01-19T20:05:52.408Z,8
2018-01-19T20:06:52.451Z,8
2018-01-19T20:07:52.103Z,8
2018-01-19T20:08:52.040Z,8
2018-01-19T20:09:52.223Z,8.1
2018-01-19T20:10:52.171Z,8
2018-01-19T20:11:52.118Z,8
2018-01-19T20:12:52.204Z,8
2018-01-19T20:13:51.779Z,8
2018-01-19T20:14:51.649Z,8
2018-01-19T20:15:51.744Z,8
2018-01-19T20:16:51.703Z,8
2018-01-19T20:17:51.452Z,8
2018-01-19T20:18:51.360Z,8
2018-01-19T20:19:51.370Z,8
2018-01-19T20:20:51.282Z,8
2018-01-19T20:21:51.221Z,8
2018-01-19T20:22:51.163Z,8
2018-01-19T20:23:50.872Z,8
2018-01-19T20:24:51.561Z,8
2018-01-19T20:25:50.984Z,8
2018-01-19T20:26:50.961Z,8
2018-01-19T20:27:50.760Z,8
2018-01-19T20:28:50.572Z,8
2018-01-19T20:29:50.431Z,8
2018-01-19T20:30:50.624Z,8
2018-01-19T20:31:50.145Z,8
2018-01-19T20:32:50.640Z,8
2018-01-19T20:33:50.378Z,8
2018-01-19T20:34:50.000Z,7.9
2018-01-19T20:35:50.008Z,7.9
2018-01-19T20:36:49.861Z,7.9
2018-01-19T20:37:49.844Z,7.9
2018-01-19T20:38:49.746Z,8
2018-01-19T20:39:49.917Z,7.9
2018-01-19T20:40:49.638Z,7.9
2018-01-19T20:41:49.632Z,8
2018-01-19T20:42:49.654Z,8
2018-01-19T20:43:49.574Z,7.9
2018-01-19T20:44:49.405Z,8
2018-01-19T20:45:49.631Z,8
2018-01-19T20:46:49.052Z,8
2018-01-19T20:47:49.474Z,8.1
2018-01-19T20:48:49.086Z,8.1
2018-01-19T20:49:49.436Z,8.1
2018-01-19T20:50:48.999Z,8.1
2018-01-19T20:51:48.957Z,8.1
2018-01-19T20:52:48.641Z,8.1
2018-01-19T20:53:48.870Z,8.1
2018-01-19T20:54:48.822Z,8.1
2018-01-19T20:55:48.912Z,8.1
2018-01-19T20:56:48.706Z,8.1
2018-01-19T20:57:48.490Z,8.1
2018-01-19T20:58:48.405Z,8.1
2018-01-19T20:59:48.071Z,8
2018-01-19T21:00:47.861Z,8
2018-01-19T21:01:47.973Z,8
2018-01-19T21:02:48.036Z,8
2018-01-19T21:03:47.889Z,8
2018-01-19T21:04:48.224Z,8
2018-01-19T21:05:47.496Z,8
2018-01-19T21:06:48.032Z,8.1
2018-01-19T21:07:47.759Z,8
2018-01-19T21:08:47.479Z,8
2018-01-19T21:09:47.335Z,8.1
2018-01-19T21:10:47.446Z,8.1
2018-01-19T21:11:47.316Z,8.1
2018-01-19T21:12:47.301Z,8.1
2018-01-19T21:13:47.045Z,8.1
2018-01-19T21:14:47.233Z,8.1
2018-01-19T21:15:47.374Z,8.1
2018-01-19T21:16:46.993Z,8.1
2018-01-19T21:17:47.426Z,8.1
2018-01-19T21:18:46.766Z,8.1
2018-01-19T21:19:46.802Z,8.1
2018-01-19T21:20:46.625Z,8.1
2018-01-19T21:21:46.685Z,8.1
2018-01-19T21:22:46.613Z,8.2
2018-01-19T21:23:46.521Z,8.2
2018-01-19T21:24:46.387Z,8.2
2018-01-19T21:25:46.251Z,8.2
2018-01-19T21:26:46.499Z,8.3
2018-01-19T21:27:46.437Z,8.3
2018-01-19T21:28:45.995Z,8.3
2018-01-19T21:29:46.482Z,8.3
2018-01-19T21:30:46.225Z,8.3
2018-01-19T21:31:46.155Z,8.3
2018-01-19T21:32:45.810Z,8.3
2018-01-19T21:33:45.651Z,8.3
2018-01-19T21:34:46.142Z,8.3
2018-01-19T21:35:45.475Z,8.4
2018-01-19T21:36:46.391Z,8.4
2018-01-19T21:37:45.469Z,8.4
2018-01-19T21:38:45.477Z,8.4
2018-01-19T21:39:45.498Z,8.4
2018-01-19T21:40:45.731Z,8.4
2018-01-19T21:41:45.325Z,8.4
2018-01-19T21:42:45.423Z,8.4
2018-01-19T21:43:45.198Z,8.4
2018-01-19T21:44:44.823Z,8.4
2018-01-19T21:45:44.778Z,8.4
2018-01-19T21:46:44.949Z,8.5
2018-01-19T21:47:44.951Z,8.4
2018-01-19T21:48:44.659Z,8.5
2018-01-19T21:49:44.464Z,8.5
2018-01-19T21:50:44.332Z,8.5
2018-01-19T21:51:44.490Z,8.5
2018-01-19T21:52:44.863Z,8.5
2018-01-19T21:53:44.422Z,8.5
2018-01-19T21:54:44.067Z,8.5
2018-01-19T21:55:44.168Z,8.6
2018-01-19T21:56:44.285Z,8.6
2018-01-19T21:57:44.065Z,8.6
2018-01-19T21:58:43.948Z,8.6
2018-01-19T21:59:43.813Z,8.6
2018-01-19T22:00:43.790Z,8.6
2018-01-19T22:01:43.656Z,8.6
2018-01-19T22:02:43.853Z,8.6
2018-01-19T22:03:44.042Z,8.6
2018-01-19T22:04:43.393Z,8.6
2018-01-19T22:05:43.341Z,8.6
2018-01-19T22:06:43.531Z,8.6
2018-01-19T22:07:43.537Z,8.6
2018-01-19T22:08:43.275Z,8.6
2018-01-19T22:09:43.094Z,8.6
2018-01-19T22:10:43.093Z,8.6
2018-01-19T22:11:43.139Z,8.6
2018-01-19T22:12:42.750Z,8.6
2018-01-19T22:13:42.721Z,8.6
2018-01-19T22:14:42.776Z,8.6
2018-01-19T22:15:42.620Z,8.6
2018-01-19T22:16:42.369Z,8.6
2018-01-19T22:17:42.556Z,8.6
2018-01-19T22:18:42.497Z,8.6
2018-01-19T22:19:42.536Z,8.6
2018-01-19T22:20:42.124Z,8.6
2018-01-19T22:21:42.090Z,8.7
2018-01-19T22:22:42.280Z,8.6
2018-01-19T22:23:41.913Z,8.6
2018-01-19T22:24:41.993Z,8.6
2018-01-19T22:25:42.557Z,8.6
2018-01-19T22:26:41.883Z,8.6
2018-01-19T22:27:41.885Z,8.7
2018-01-19T22:28:41.968Z,8.6
2018-01-19T22:29:41.733Z,8.6
2018-01-19T22:30:41.389Z,8.6
2018-01-19T22:31:41.397Z,8.6
2018-01-19T22:32:41.378Z,8.6
2018-01-19T22:33:41.308Z,8.6
2018-01-19T22:34:41.144Z,8.6
2018-01-19T22:35:41.159Z,8.6
2018-01-19T22:36:41.461Z,8.6
2018-01-19T22:37:40.791Z,8.6
2018-01-19T22:38:40.735Z,8.6
2018-01-19T22:39:40.937Z,8.6
2018-01-19T22:40:40.770Z,8.6
2018-01-19T22:41:40.585Z,8.6
2018-01-19T22:42:40.517Z,8.6
2018-01-19T22:43:40.522Z,8.6
2018-01-19T22:44:40.976Z,8.6
2018-01-19T22:45:40.294Z,8.6
2018-01-19T22:46:40.525Z,8.6
2018-01-19T22:47:40.296Z,8.6
2018-01-19T22:48:39.964Z,8.6
2018-01-19T22:49:39.985Z,8.6
2018-01-19T22:50:40.187Z,8.6
2018-01-19T22:51:39.983Z,8.6
2018-01-19T22:52:39.846Z,8.6
2018-01-19T22:53:39.824Z,8.6
2018-01-19T22:54:39.657Z,8.6
2018-01-19T22:55:39.481Z,8.6
2018-01-19T22:56:39.523Z,8.6
2018-01-19T22:57:39.427Z,8.6
2018-01-19T22:58:39.323Z,8.6
2018-01-19T22:59:39.169Z,8.6
2018-01-19T23:00:39.069Z,8.5
2018-01-19T23:01:39.022Z,8.6
2018-01-19T23:02:38.966Z,8.6
2018-01-19T23:03:39.053Z,8.5
2018-01-19T23:04:38.885Z,8.5
2018-01-19T23:05:39.195Z,8.5
2018-01-19T23:06:38.846Z,8.5
2018-01-19T23:07:38.551Z,8.5
2018-01-19T23:08:38.854Z,8.5
2018-01-19T23:09:38.540Z,8.5
2018-01-19T23:10:38.435Z,8.5
2018-01-19T23:11:38.295Z,8.5
2018-01-19T23:12:38.247Z,8.5
2018-01-19T23:13:38.395Z,8.5
2018-01-19T23:14:38.002Z,8.5
2018-01-19T23:15:38.197Z,8.5
2018-01-19T23:16:37.956Z,8.5
2018-01-19T23:17:38.112Z,8.4
2018-01-19T23:18:37.992Z,8.5
2018-01-19T23:19:37.435Z,8.5
2018-01-19T23:20:37.438Z,8.5
2018-01-19T23:21:37.561Z,8.5
2018-01-19T23:22:37.550Z,8.5
2018-01-19T23:23:37.393Z,8.5
2018-01-19T23:24:37.246Z,8.5
2018-01-19T23:25:37.319Z,8.5
2018-01-19T23:26:37.171Z,8.6
2018-01-19T23:27:36.885Z,8.6
2018-01-19T23:28:36.793Z,8.6
2018-01-19T23:29:36.834Z,8.6
2018-01-19T23:30:37.049Z,8.6
2018-01-19T23:31:36.490Z,8.6
2018-01-19T23:32:36.612Z,8.6
2018-01-19T23:33:36.424Z,8.6
2018-01-19T23:34:36.289Z,8.6
2018-01-19T23:35:36.543Z,8.6
2018-01-19T23:36:36.685Z,8.6
2018-01-19T23:37:36.116Z,8.6
2018-01-19T23:38:36.107Z,8.6
2018-01-19T23:39:35.928Z,8.6
2018-01-19T23:40:35.857Z,8.6
2018-01-19T23:41:36.196Z,8.6
2018-01-19T23:42:35.820Z,8.6
2018-01-19T23:43:36.032Z,8.6
2018-01-19T23:44:35.656Z,8.6
2018-01-19T23:45:36.044Z,8.6
2018-01-19T23:46:35.499Z,8.6
2018-01-19T23:47:35.301Z,8.6
2018-01-19T23:48:35.494Z,8.6
2018-01-19T23:49:35.179Z,8.6
2018-01-19T23:50:35.092Z,8.6
2018-01-19T23:51:35.384Z,8.6
2018-01-19T23:52:35.022Z,8.6
2018-01-19T23:53:34.944Z,8.6
2018-01-19T23:54:35.035Z,8.6
2018-01-19T23:55:34.953Z,8.6
2018-01-19T23:56:34.789Z,8.6
2018-01-19T23:57:34.446Z,8.6
2018-01-19T23:58:34.557Z,8.6
2018-01-19T23:59:34.581Z,8.6
